sensor_id;sensor_type;location;lat;lon;timestamp;P1;durP1;ratioP1;P2;durP2;ratioP2
15958;SDS011;8078;47.822;9.402;2023-05-09T00:00:32;20.77;;;15.00;;
15958;SDS011;8078;47.822;9.402;2023-05-09T00:02:57;29.05;;;14.98;;
15958;SDS011;8078;47.822;9.402;2023-05-09T00:05:23;19.85;;;13.13;;
15958;SDS011;8078;47.822;9.402;2023-05-09T00:07:49;17.42;;;13.10;;
15958;SDS011;8078;47.822;9.402;2023-05-09T00:10:14;29.15;;;14.90;;
15958;SDS011;8078;47.822;9.402;2023-05-09T00:12:40;28.65;;;12.75;;
15958;SDS011;8078;47.822;9.402;2023-05-09T00:15:07;191.68;;;17.08;;
15958;SDS011;8078;47.822;9.402;2023-05-09T00:17:34;250.40;;;22.63;;
15958;SDS011;8078;47.822;9.402;2023-05-09T00:20:00;204.32;;;20.23;;
15958;SDS011;8078;47.822;9.402;2023-05-09T00:22:31;339.58;;;28.05;;
15958;SDS011;8078;47.822;9.402;2023-05-09T00:24:57;29.33;;;21.55;;
15958;SDS011;8078;47.822;9.402;2023-05-09T00:27:22;34.92;;;23.67;;
15958;SDS011;8078;47.822;9.402;2023-05-09T00:29:48;40.35;;;23.75;;
15958;SDS011;8078;47.822;9.402;2023-05-09T00:32:13;31.80;;;19.45;;
15958;SDS011;8078;47.822;9.402;2023-05-09T00:34:39;28.88;;;18.60;;
15958;SDS011;8078;47.822;9.402;2023-05-09T00:37:05;30.88;;;20.10;;
15958;SDS011;8078;47.822;9.402;2023-05-09T00:39:31;43.40;;;25.15;;
15958;SDS011;8078;47.822;9.402;2023-05-09T00:41:56;22.20;;;15.60;;
15958;SDS011;8078;47.822;9.402;2023-05-09T00:44:22;20.55;;;15.13;;
15958;SDS011;8078;47.822;9.402;2023-05-09T00:46:47;48.70;;;27.30;;
15958;SDS011;8078;47.822;9.402;2023-05-09T00:49:13;39.67;;;24.15;;
15958;SDS011;8078;47.822;9.402;2023-05-09T00:51:39;25.42;;;15.30;;
15958;SDS011;8078;47.822;9.402;2023-05-09T00:54:05;20.10;;;14.25;;
15958;SDS011;8078;47.822;9.402;2023-05-09T00:56:31;18.70;;;13.55;;
15958;SDS011;8078;47.822;9.402;2023-05-09T00:58:57;19.02;;;13.18;;
15958;SDS011;8078;47.822;9.402;2023-05-09T01:01:23;17.48;;;12.52;;
15958;SDS011;8078;47.822;9.402;2023-05-09T01:03:49;18.30;;;13.18;;
15958;SDS011;8078;47.822;9.402;2023-05-09T01:11:44;32.25;;;20.17;;
15958;SDS011;8078;47.822;9.402;2023-05-09T01:14:24;34.33;;;21.02;;
15958;SDS011;8078;47.822;9.402;2023-05-09T01:17:07;42.38;;;23.92;;
15958;SDS011;8078;47.822;9.402;2023-05-09T01:22:17;48.38;;;25.33;;
15958;SDS011;8078;47.822;9.402;2023-05-09T01:27:48;127.90;;;30.75;;
15958;SDS011;8078;47.822;9.402;2023-05-09T01:30:34;62.58;;;27.98;;
15958;SDS011;8078;47.822;9.402;2023-05-09T01:33:02;87.78;;;30.55;;
15958;SDS011;8078;47.822;9.402;2023-05-09T01:35:32;135.07;;;34.67;;
15958;SDS011;8078;47.822;9.402;2023-05-09T01:37:59;91.15;;;31.85;;
15958;SDS011;8078;47.822;9.402;2023-05-09T01:40:29;70.45;;;32.85;;
15958;SDS011;8078;47.822;9.402;2023-05-09T01:42:58;59.80;;;28.52;;
15958;SDS011;8078;47.822;9.402;2023-05-09T01:45:28;74.22;;;28.85;;
15958;SDS011;8078;47.822;9.402;2023-05-09T01:47:53;50.38;;;27.27;;
15958;SDS011;8078;47.822;9.402;2023-05-09T01:50:21;45.38;;;24.35;;
15958;SDS011;8078;47.822;9.402;2023-05-09T01:52:48;45.08;;;23.92;;
15958;SDS011;8078;47.822;9.402;2023-05-09T01:55:17;42.22;;;23.88;;
15958;SDS011;8078;47.822;9.402;2023-05-09T01:57:45;45.83;;;23.80;;
15958;SDS011;8078;47.822;9.402;2023-05-09T02:00:12;44.67;;;22.73;;
15958;SDS011;8078;47.822;9.402;2023-05-09T02:02:39;39.30;;;21.80;;
15958;SDS011;8078;47.822;9.402;2023-05-09T02:05:05;39.78;;;22.25;;
15958;SDS011;8078;47.822;9.402;2023-05-09T02:07:33;39.22;;;21.92;;
15958;SDS011;8078;47.822;9.402;2023-05-09T02:10:00;34.25;;;19.52;;
15958;SDS011;8078;47.822;9.402;2023-05-09T02:12:27;34.15;;;18.77;;
15958;SDS011;8078;47.822;9.402;2023-05-09T02:14:52;34.35;;;19.00;;
15958;SDS011;8078;47.822;9.402;2023-05-09T02:17:18;30.42;;;17.98;;
15958;SDS011;8078;47.822;9.402;2023-05-09T02:19:45;28.55;;;17.25;;
15958;SDS011;8078;47.822;9.402;2023-05-09T02:22:12;32.33;;;17.95;;
15958;SDS011;8078;47.822;9.402;2023-05-09T02:24:38;29.00;;;16.65;;
15958;SDS011;8078;47.822;9.402;2023-05-09T02:27:04;27.42;;;16.38;;
15958;SDS011;8078;47.822;9.402;2023-05-09T02:29:33;26.67;;;16.80;;
15958;SDS011;8078;47.822;9.402;2023-05-09T02:32:10;36.40;;;20.73;;
15958;SDS011;8078;47.822;9.402;2023-05-09T02:34:39;46.05;;;23.13;;
15958;SDS011;8078;47.822;9.402;2023-05-09T02:37:06;47.58;;;25.40;;
15958;SDS011;8078;47.822;9.402;2023-05-09T02:39:32;58.53;;;29.00;;
15958;SDS011;8078;47.822;9.402;2023-05-09T02:42:06;59.97;;;27.50;;
15958;SDS011;8078;47.822;9.402;2023-05-09T02:44:34;45.13;;;24.35;;
15958;SDS011;8078;47.822;9.402;2023-05-09T02:47:00;53.45;;;26.48;;
15958;SDS011;8078;47.822;9.402;2023-05-09T02:49:26;47.03;;;25.80;;
15958;SDS011;8078;47.822;9.402;2023-05-09T02:51:52;47.10;;;24.27;;
15958;SDS011;8078;47.822;9.402;2023-05-09T02:54:17;46.42;;;24.83;;
15958;SDS011;8078;47.822;9.402;2023-05-09T02:56:43;40.88;;;22.08;;
15958;SDS011;8078;47.822;9.402;2023-05-09T02:59:09;43.03;;;23.17;;
15958;SDS011;8078;47.822;9.402;2023-05-09T03:01:34;34.75;;;20.83;;
15958;SDS011;8078;47.822;9.402;2023-05-09T03:04:00;40.95;;;22.20;;
15958;SDS011;8078;47.822;9.402;2023-05-09T03:06:26;34.47;;;19.67;;
15958;SDS011;8078;47.822;9.402;2023-05-09T03:08:51;25.52;;;15.98;;
15958;SDS011;8078;47.822;9.402;2023-05-09T03:11:17;31.17;;;19.00;;
15958;SDS011;8078;47.822;9.402;2023-05-09T03:13:42;40.67;;;20.23;;
15958;SDS011;8078;47.822;9.402;2023-05-09T03:16:09;39.60;;;20.30;;
15958;SDS011;8078;47.822;9.402;2023-05-09T03:18:39;22.58;;;14.82;;
15958;SDS011;8078;47.822;9.402;2023-05-09T03:21:04;37.25;;;21.85;;
15958;SDS011;8078;47.822;9.402;2023-05-09T03:23:30;40.47;;;23.13;;
15958;SDS011;8078;47.822;9.402;2023-05-09T03:25:56;45.78;;;24.20;;
15958;SDS011;8078;47.822;9.402;2023-05-09T03:28:21;27.83;;;16.15;;
15958;SDS011;8078;47.822;9.402;2023-05-09T03:30:47;36.28;;;19.45;;
15958;SDS011;8078;47.822;9.402;2023-05-09T03:33:13;32.55;;;18.00;;
15958;SDS011;8078;47.822;9.402;2023-05-09T03:35:39;29.27;;;17.63;;
15958;SDS011;8078;47.822;9.402;2023-05-09T03:38:04;29.30;;;16.83;;
15958;SDS011;8078;47.822;9.402;2023-05-09T03:40:30;33.13;;;17.85;;
15958;SDS011;8078;47.822;9.402;2023-05-09T03:42:55;38.55;;;18.63;;
15958;SDS011;8078;47.822;9.402;2023-05-09T03:45:21;39.88;;;20.00;;
15958;SDS011;8078;47.822;9.402;2023-05-09T03:47:46;93.18;;;29.10;;
15958;SDS011;8078;47.822;9.402;2023-05-09T03:50:12;540.22;;;48.33;;
15958;SDS011;8078;47.822;9.402;2023-05-09T03:52:37;977.65;;;68.88;;
15958;SDS011;8078;47.822;9.402;2023-05-09T03:55:03;1095.10;;;74.77;;
15958;SDS011;8078;47.822;9.402;2023-05-09T03:57:29;849.53;;;64.60;;
15958;SDS011;8078;47.822;9.402;2023-05-09T03:59:55;771.95;;;53.45;;
15958;SDS011;8078;47.822;9.402;2023-05-09T04:02:21;676.20;;;54.83;;
15958;SDS011;8078;47.822;9.402;2023-05-09T04:04:47;693.58;;;54.88;;
15958;SDS011;8078;47.822;9.402;2023-05-09T04:07:14;762.17;;;59.10;;
15958;SDS011;8078;47.822;9.402;2023-05-09T04:09:39;852.37;;;67.77;;
15958;SDS011;8078;47.822;9.402;2023-05-09T04:12:06;1103.93;;;75.57;;
15958;SDS011;8078;47.822;9.402;2023-05-09T04:14:32;1052.82;;;75.30;;
15958;SDS011;8078;47.822;9.402;2023-05-09T04:16:58;1084.45;;;87.07;;
15958;SDS011;8078;47.822;9.402;2023-05-09T04:19:24;1275.50;;;88.40;;
15958;SDS011;8078;47.822;9.402;2023-05-09T04:21:49;1212.40;;;91.30;;
15958;SDS011;8078;47.822;9.402;2023-05-09T04:24:15;1094.37;;;90.90;;
15958;SDS011;8078;47.822;9.402;2023-05-09T04:26:40;1192.27;;;99.70;;
15958;SDS011;8078;47.822;9.402;2023-05-09T04:29:06;1276.80;;;106.73;;
15958;SDS011;8078;47.822;9.402;2023-05-09T04:31:32;1307.07;;;112.40;;
15958;SDS011;8078;47.822;9.402;2023-05-09T04:33:57;1254.17;;;94.63;;
15958;SDS011;8078;47.822;9.402;2023-05-09T04:36:23;1117.73;;;88.50;;
15958;SDS011;8078;47.822;9.402;2023-05-09T04:38:48;1098.20;;;83.80;;
15958;SDS011;8078;47.822;9.402;2023-05-09T04:41:14;872.83;;;78.07;;
15958;SDS011;8078;47.822;9.402;2023-05-09T04:43:40;1145.97;;;92.10;;
15958;SDS011;8078;47.822;9.402;2023-05-09T04:46:07;1164.05;;;90.72;;
15958;SDS011;8078;47.822;9.402;2023-05-09T04:48:33;999.53;;;86.10;;
15958;SDS011;8078;47.822;9.402;2023-05-09T04:50:59;868.93;;;77.33;;
15958;SDS011;8078;47.822;9.402;2023-05-09T04:53:25;936.80;;;80.13;;
15958;SDS011;8078;47.822;9.402;2023-05-09T04:55:51;1017.40;;;87.78;;
15958;SDS011;8078;47.822;9.402;2023-05-09T04:58:17;920.27;;;81.67;;
15958;SDS011;8078;47.822;9.402;2023-05-09T05:00:42;1203.28;;;90.20;;
15958;SDS011;8078;47.822;9.402;2023-05-09T05:03:08;1403.17;;;97.97;;
15958;SDS011;8078;47.822;9.402;2023-05-09T05:05:34;578.73;;;55.63;;
15958;SDS011;8078;47.822;9.402;2023-05-09T05:07:59;708.30;;;56.53;;
15958;SDS011;8078;47.822;9.402;2023-05-09T05:10:25;915.30;;;67.07;;
15958;SDS011;8078;47.822;9.402;2023-05-09T05:12:50;530.42;;;49.40;;
15958;SDS011;8078;47.822;9.402;2023-05-09T05:15:16;785.25;;;62.17;;
15958;SDS011;8078;47.822;9.402;2023-05-09T05:17:43;725.45;;;62.20;;
15958;SDS011;8078;47.822;9.402;2023-05-09T05:20:09;734.70;;;57.13;;
15958;SDS011;8078;47.822;9.402;2023-05-09T05:22:35;976.05;;;67.18;;
15958;SDS011;8078;47.822;9.402;2023-05-09T05:25:00;816.97;;;59.35;;
15958;SDS011;8078;47.822;9.402;2023-05-09T05:27:27;704.63;;;50.60;;
15958;SDS011;8078;47.822;9.402;2023-05-09T05:29:53;842.00;;;60.58;;
15958;SDS011;8078;47.822;9.402;2023-05-09T05:32:18;517.92;;;48.65;;
15958;SDS011;8078;47.822;9.402;2023-05-09T05:34:44;673.67;;;50.58;;
15958;SDS011;8078;47.822;9.402;2023-05-09T05:37:10;631.40;;;51.00;;
15958;SDS011;8078;47.822;9.402;2023-05-09T05:39:35;762.57;;;54.47;;
15958;SDS011;8078;47.822;9.402;2023-05-09T05:42:01;846.40;;;58.50;;
15958;SDS011;8078;47.822;9.402;2023-05-09T05:44:27;953.10;;;60.08;;
15958;SDS011;8078;47.822;9.402;2023-05-09T05:46:52;575.50;;;45.17;;
15958;SDS011;8078;47.822;9.402;2023-05-09T05:49:18;415.08;;;41.25;;
15958;SDS011;8078;47.822;9.402;2023-05-09T05:51:43;560.60;;;46.65;;
15958;SDS011;8078;47.822;9.402;2023-05-09T05:54:09;669.45;;;51.45;;
15958;SDS011;8078;47.822;9.402;2023-05-09T05:56:35;667.22;;;47.88;;
15958;SDS011;8078;47.822;9.402;2023-05-09T05:59:00;707.67;;;52.00;;
15958;SDS011;8078;47.822;9.402;2023-05-09T06:01:26;674.60;;;48.50;;
15958;SDS011;8078;47.822;9.402;2023-05-09T06:03:51;458.45;;;40.65;;
15958;SDS011;8078;47.822;9.402;2023-05-09T06:06:20;776.10;;;50.25;;
15958;SDS011;8078;47.822;9.402;2023-05-09T06:08:46;382.27;;;36.40;;
15958;SDS011;8078;47.822;9.402;2023-05-09T06:11:14;424.55;;;40.65;;
15958;SDS011;8078;47.822;9.402;2023-05-09T06:13:40;527.65;;;45.08;;
15958;SDS011;8078;47.822;9.402;2023-05-09T06:16:08;667.65;;;51.17;;
15958;SDS011;8078;47.822;9.402;2023-05-09T06:18:34;861.67;;;60.20;;
15958;SDS011;8078;47.822;9.402;2023-05-09T06:21:02;518.50;;;44.65;;
15958;SDS011;8078;47.822;9.402;2023-05-09T06:23:27;684.78;;;49.83;;
15958;SDS011;8078;47.822;9.402;2023-05-09T06:25:53;721.13;;;52.20;;
15958;SDS011;8078;47.822;9.402;2023-05-09T06:28:19;495.05;;;42.72;;
15958;SDS011;8078;47.822;9.402;2023-05-09T06:30:44;173.00;;;30.40;;
15958;SDS011;8078;47.822;9.402;2023-05-09T06:33:10;408.90;;;37.13;;
15958;SDS011;8078;47.822;9.402;2023-05-09T06:35:35;247.90;;;32.97;;
15958;SDS011;8078;47.822;9.402;2023-05-09T06:38:01;110.60;;;29.80;;
15958;SDS011;8078;47.822;9.402;2023-05-09T06:40:27;66.60;;;26.50;;
15958;SDS011;8078;47.822;9.402;2023-05-09T06:42:52;51.50;;;24.20;;
15958;SDS011;8078;47.822;9.402;2023-05-09T06:45:18;47.60;;;23.55;;
15958;SDS011;8078;47.822;9.402;2023-05-09T06:47:43;43.67;;;23.27;;
15958;SDS011;8078;47.822;9.402;2023-05-09T06:50:09;64.82;;;23.08;;
15958;SDS011;8078;47.822;9.402;2023-05-09T06:52:34;45.90;;;22.58;;
15958;SDS011;8078;47.822;9.402;2023-05-09T06:55:00;143.50;;;27.13;;
15958;SDS011;8078;47.822;9.402;2023-05-09T06:57:25;214.95;;;28.40;;
15958;SDS011;8078;47.822;9.402;2023-05-09T06:59:51;155.13;;;25.95;;
15958;SDS011;8078;47.822;9.402;2023-05-09T07:02:17;43.33;;;22.73;;
15958;SDS011;8078;47.822;9.402;2023-05-09T07:04:42;385.33;;;34.75;;
15958;SDS011;8078;47.822;9.402;2023-05-09T07:07:08;33.00;;;20.63;;
15958;SDS011;8078;47.822;9.402;2023-05-09T07:09:33;27.83;;;17.38;;
15958;SDS011;8078;47.822;9.402;2023-05-09T07:11:59;40.53;;;19.02;;
15958;SDS011;8078;47.822;9.402;2023-05-09T07:14:25;29.13;;;18.65;;
15958;SDS011;8078;47.822;9.402;2023-05-09T07:16:51;28.77;;;17.27;;
15958;SDS011;8078;47.822;9.402;2023-05-09T07:19:16;26.48;;;18.13;;
15958;SDS011;8078;47.822;9.402;2023-05-09T07:21:42;23.35;;;15.43;;
15958;SDS011;8078;47.822;9.402;2023-05-09T07:24:07;20.90;;;14.75;;
15958;SDS011;8078;47.822;9.402;2023-05-09T07:26:36;21.35;;;14.32;;
15958;SDS011;8078;47.822;9.402;2023-05-09T07:29:02;17.40;;;12.23;;
15958;SDS011;8078;47.822;9.402;2023-05-09T07:31:28;16.40;;;11.32;;
15958;SDS011;8078;47.822;9.402;2023-05-09T07:33:53;15.60;;;10.80;;
15958;SDS011;8078;47.822;9.402;2023-05-09T07:36:19;14.07;;;10.85;;
15958;SDS011;8078;47.822;9.402;2023-05-09T07:38:45;15.50;;;11.75;;
15958;SDS011;8078;47.822;9.402;2023-05-09T07:41:13;14.95;;;10.65;;
15958;SDS011;8078;47.822;9.402;2023-05-09T07:43:38;13.43;;;10.10;;
15958;SDS011;8078;47.822;9.402;2023-05-09T07:46:04;10.45;;;8.50;;
15958;SDS011;8078;47.822;9.402;2023-05-09T07:48:30;9.02;;;7.75;;
15958;SDS011;8078;47.822;9.402;2023-05-09T07:50:55;12.15;;;8.50;;
15958;SDS011;8078;47.822;9.402;2023-05-09T07:53:22;8.95;;;7.15;;
15958;SDS011;8078;47.822;9.402;2023-05-09T07:55:47;7.80;;;6.78;;
15958;SDS011;8078;47.822;9.402;2023-05-09T07:58:14;10.40;;;6.85;;
15958;SDS011;8078;47.822;9.402;2023-05-09T08:00:40;10.10;;;7.63;;
15958;SDS011;8078;47.822;9.402;2023-05-09T08:03:06;10.15;;;7.20;;
15958;SDS011;8078;47.822;9.402;2023-05-09T08:05:32;7.70;;;6.10;;
15958;SDS011;8078;47.822;9.402;2023-05-09T08:07:57;8.05;;;6.50;;
15958;SDS011;8078;47.822;9.402;2023-05-09T08:10:23;9.10;;;6.65;;
15958;SDS011;8078;47.822;9.402;2023-05-09T08:12:50;8.40;;;6.38;;
15958;SDS011;8078;47.822;9.402;2023-05-09T08:15:16;5.90;;;5.25;;
15958;SDS011;8078;47.822;9.402;2023-05-09T08:17:41;8.45;;;6.28;;
15958;SDS011;8078;47.822;9.402;2023-05-09T08:20:07;6.65;;;5.47;;
15958;SDS011;8078;47.822;9.402;2023-05-09T08:22:33;5.80;;;5.03;;
15958;SDS011;8078;47.822;9.402;2023-05-09T08:24:59;6.35;;;5.68;;
15958;SDS011;8078;47.822;9.402;2023-05-09T08:27:24;8.60;;;6.95;;
15958;SDS011;8078;47.822;9.402;2023-05-09T08:29:50;11.23;;;8.30;;
15958;SDS011;8078;47.822;9.402;2023-05-09T08:32:15;10.75;;;8.02;;
15958;SDS011;8078;47.822;9.402;2023-05-09T08:34:43;10.85;;;8.45;;
15958;SDS011;8078;47.822;9.402;2023-05-09T08:37:09;9.02;;;8.00;;
15958;SDS011;8078;47.822;9.402;2023-05-09T08:39:35;9.90;;;7.80;;
15958;SDS011;8078;47.822;9.402;2023-05-09T08:42:01;12.52;;;9.68;;
15958;SDS011;8078;47.822;9.402;2023-05-09T08:44:27;14.05;;;10.30;;
15958;SDS011;8078;47.822;9.402;2023-05-09T08:46:55;12.93;;;10.38;;
15958;SDS011;8078;47.822;9.402;2023-05-09T08:49:25;11.32;;;8.73;;
15958;SDS011;8078;47.822;9.402;2023-05-09T08:51:51;11.05;;;7.85;;
15958;SDS011;8078;47.822;9.402;2023-05-09T08:54:18;11.35;;;7.95;;
15958;SDS011;8078;47.822;9.402;2023-05-09T08:56:44;10.63;;;8.07;;
15958;SDS011;8078;47.822;9.402;2023-05-09T08:59:10;12.82;;;8.77;;
15958;SDS011;8078;47.822;9.402;2023-05-09T09:01:37;10.13;;;8.73;;
15958;SDS011;8078;47.822;9.402;2023-05-09T09:04:04;10.52;;;9.27;;
15958;SDS011;8078;47.822;9.402;2023-05-09T09:06:34;11.35;;;9.43;;
15958;SDS011;8078;47.822;9.402;2023-05-09T09:09:00;16.63;;;10.68;;
15958;SDS011;8078;47.822;9.402;2023-05-09T09:11:30;11.80;;;9.52;;
15958;SDS011;8078;47.822;9.402;2023-05-09T09:13:59;13.77;;;9.38;;
15958;SDS011;8078;47.822;9.402;2023-05-09T09:16:25;11.13;;;8.93;;
15958;SDS011;8078;47.822;9.402;2023-05-09T09:18:53;12.48;;;9.18;;
15958;SDS011;8078;47.822;9.402;2023-05-09T09:21:20;10.88;;;9.07;;
15958;SDS011;8078;47.822;9.402;2023-05-09T09:23:47;11.85;;;9.15;;
15958;SDS011;8078;47.822;9.402;2023-05-09T09:26:13;12.18;;;7.85;;
15958;SDS011;8078;47.822;9.402;2023-05-09T09:28:39;8.73;;;6.80;;
15958;SDS011;8078;47.822;9.402;2023-05-09T09:31:21;7.05;;;5.85;;
15958;SDS011;8078;47.822;9.402;2023-05-09T09:33:48;6.75;;;5.40;;
15958;SDS011;8078;47.822;9.402;2023-05-09T09:36:14;5.57;;;4.53;;
15958;SDS011;8078;47.822;9.402;2023-05-09T09:38:40;7.13;;;4.13;;
15958;SDS011;8078;47.822;9.402;2023-05-09T09:41:07;4.50;;;4.10;;
15958;SDS011;8078;47.822;9.402;2023-05-09T09:43:35;4.72;;;4.15;;
15958;SDS011;8078;47.822;9.402;2023-05-09T09:46:01;6.70;;;5.28;;
15958;SDS011;8078;47.822;9.402;2023-05-09T09:48:31;5.88;;;5.15;;
15958;SDS011;8078;47.822;9.402;2023-05-09T09:51:08;5.65;;;4.07;;
15958;SDS011;8078;47.822;9.402;2023-05-09T09:53:38;5.47;;;3.78;;
15958;SDS011;8078;47.822;9.402;2023-05-09T09:56:05;8.00;;;4.30;;
15958;SDS011;8078;47.822;9.402;2023-05-09T09:58:31;3.67;;;3.33;;
15958;SDS011;8078;47.822;9.402;2023-05-09T10:01:07;2.83;;;2.63;;
15958;SDS011;8078;47.822;9.402;2023-05-09T10:03:43;4.15;;;2.90;;
15958;SDS011;8078;47.822;9.402;2023-05-09T10:06:10;2.83;;;2.20;;
15958;SDS011;8078;47.822;9.402;2023-05-09T10:08:38;3.47;;;2.70;;
15958;SDS011;8078;47.822;9.402;2023-05-09T10:11:04;4.93;;;4.10;;
15958;SDS011;8078;47.822;9.402;2023-05-09T10:13:30;4.25;;;3.85;;
15958;SDS011;8078;47.822;9.402;2023-05-09T10:15:58;4.65;;;3.83;;
15958;SDS011;8078;47.822;9.402;2023-05-09T10:18:27;4.53;;;4.10;;
15958;SDS011;8078;47.822;9.402;2023-05-09T10:20:55;4.30;;;3.90;;
15958;SDS011;8078;47.822;9.402;2023-05-09T10:23:25;7.53;;;4.35;;
15958;SDS011;8078;47.822;9.402;2023-05-09T10:28:47;4.30;;;3.90;;
15958;SDS011;8078;47.822;9.402;2023-05-09T10:31:19;4.47;;;3.83;;
15958;SDS011;8078;47.822;9.402;2023-05-09T10:33:48;5.35;;;4.18;;
15958;SDS011;8078;47.822;9.402;2023-05-09T10:36:15;4.80;;;3.95;;
15958;SDS011;8078;47.822;9.402;2023-05-09T10:38:44;5.57;;;3.92;;
15958;SDS011;8078;47.822;9.402;2023-05-09T10:41:11;3.45;;;3.15;;
15958;SDS011;8078;47.822;9.402;2023-05-09T10:43:37;5.43;;;3.60;;
15958;SDS011;8078;47.822;9.402;2023-05-09T10:46:03;3.42;;;3.05;;
15958;SDS011;8078;47.822;9.402;2023-05-09T10:48:31;5.30;;;3.90;;
15958;SDS011;8078;47.822;9.402;2023-05-09T10:50:58;4.30;;;3.92;;
15958;SDS011;8078;47.822;9.402;2023-05-09T10:53:34;4.88;;;3.50;;
15958;SDS011;8078;47.822;9.402;2023-05-09T10:56:08;6.25;;;3.03;;
15958;SDS011;8078;47.822;9.402;2023-05-09T10:58:46;3.45;;;3.10;;
15958;SDS011;8078;47.822;9.402;2023-05-09T11:01:11;3.40;;;3.10;;
15958;SDS011;8078;47.822;9.402;2023-05-09T11:03:54;3.58;;;2.85;;
15958;SDS011;8078;47.822;9.402;2023-05-09T11:14:29;2.47;;;2.28;;
15958;SDS011;8078;47.822;9.402;2023-05-09T11:16:57;3.08;;;2.60;;
15958;SDS011;8078;47.822;9.402;2023-05-09T11:19:33;2.80;;;2.50;;
15958;SDS011;8078;47.822;9.402;2023-05-09T11:22:12;2.75;;;2.40;;
15958;SDS011;8078;47.822;9.402;2023-05-09T11:24:47;5.10;;;2.30;;
15958;SDS011;8078;47.822;9.402;2023-05-09T11:27:21;2.67;;;1.98;;
15958;SDS011;8078;47.822;9.402;2023-05-09T11:32:21;2.38;;;2.17;;
15958;SDS011;8078;47.822;9.402;2023-05-09T11:34:51;3.15;;;2.30;;
15958;SDS011;8078;47.822;9.402;2023-05-09T11:37:38;2.40;;;1.88;;
15958;SDS011;8078;47.822;9.402;2023-05-09T11:40:10;2.08;;;1.95;;
15958;SDS011;8078;47.822;9.402;2023-05-09T11:42:37;2.78;;;1.65;;
15958;SDS011;8078;47.822;9.402;2023-05-09T11:45:07;3.72;;;1.70;;
15958;SDS011;8078;47.822;9.402;2023-05-09T11:47:34;7.13;;;2.00;;
15958;SDS011;8078;47.822;9.402;2023-05-09T11:50:01;2.55;;;2.03;;
15958;SDS011;8078;47.822;9.402;2023-05-09T11:52:30;3.40;;;1.75;;
15958;SDS011;8078;47.822;9.402;2023-05-09T11:54:57;2.10;;;1.50;;
15958;SDS011;8078;47.822;9.402;2023-05-09T11:57:23;2.03;;;1.85;;
15958;SDS011;8078;47.822;9.402;2023-05-09T11:59:49;3.00;;;1.60;;
15958;SDS011;8078;47.822;9.402;2023-05-09T12:02:14;3.30;;;1.75;;
15958;SDS011;8078;47.822;9.402;2023-05-09T12:04:40;4.22;;;1.77;;
15958;SDS011;8078;47.822;9.402;2023-05-09T12:07:06;1.70;;;1.58;;
15958;SDS011;8078;47.822;9.402;2023-05-09T12:09:32;1.55;;;1.45;;
15958;SDS011;8078;47.822;9.402;2023-05-09T12:11:59;1.90;;;1.70;;
15958;SDS011;8078;47.822;9.402;2023-05-09T12:14:25;2.00;;;1.80;;
15958;SDS011;8078;47.822;9.402;2023-05-09T12:16:52;1.63;;;1.52;;
15958;SDS011;8078;47.822;9.402;2023-05-09T12:19:18;1.80;;;1.70;;
15958;SDS011;8078;47.822;9.402;2023-05-09T12:21:43;2.10;;;1.77;;
15958;SDS011;8078;47.822;9.402;2023-05-09T12:24:09;1.80;;;1.70;;
15958;SDS011;8078;47.822;9.402;2023-05-09T12:26:34;3.85;;;1.90;;
15958;SDS011;8078;47.822;9.402;2023-05-09T12:29:00;2.65;;;1.60;;
15958;SDS011;8078;47.822;9.402;2023-05-09T12:31:26;1.83;;;1.50;;
15958;SDS011;8078;47.822;9.402;2023-05-09T12:33:52;3.25;;;1.67;;
15958;SDS011;8078;47.822;9.402;2023-05-09T12:36:18;3.28;;;1.63;;
15958;SDS011;8078;47.822;9.402;2023-05-09T12:38:53;1.77;;;1.67;;
15958;SDS011;8078;47.822;9.402;2023-05-09T12:41:19;1.90;;;1.67;;
15958;SDS011;8078;47.822;9.402;2023-05-09T12:43:49;1.60;;;1.50;;
15958;SDS011;8078;47.822;9.402;2023-05-09T12:46:18;2.17;;;1.30;;
15958;SDS011;8078;47.822;9.402;2023-05-09T12:48:44;1.50;;;1.40;;
15958;SDS011;8078;47.822;9.402;2023-05-09T12:51:11;1.52;;;1.42;;
15958;SDS011;8078;47.822;9.402;2023-05-09T12:53:41;1.38;;;1.27;;
15958;SDS011;8078;47.822;9.402;2023-05-09T12:56:11;1.38;;;1.27;;
15958;SDS011;8078;47.822;9.402;2023-05-09T12:58:51;1.20;;;1.10;;
15958;SDS011;8078;47.822;9.402;2023-05-09T13:01:21;1.40;;;1.30;;
15958;SDS011;8078;47.822;9.402;2023-05-09T13:03:51;2.65;;;1.13;;
15958;SDS011;8078;47.822;9.402;2023-05-09T13:06:24;2.42;;;1.50;;
15958;SDS011;8078;47.822;9.402;2023-05-09T13:08:59;1.55;;;1.33;;
15958;SDS011;8078;47.822;9.402;2023-05-09T13:11:26;2.10;;;1.40;;
15958;SDS011;8078;47.822;9.402;2023-05-09T13:13:53;1.90;;;1.80;;
15958;SDS011;8078;47.822;9.402;2023-05-09T13:16:18;2.28;;;1.90;;
15958;SDS011;8078;47.822;9.402;2023-05-09T13:18:44;2.95;;;1.85;;
15958;SDS011;8078;47.822;9.402;2023-05-09T13:21:10;2.50;;;2.28;;
15958;SDS011;8078;47.822;9.402;2023-05-09T13:23:35;2.67;;;2.40;;
15958;SDS011;8078;47.822;9.402;2023-05-09T13:26:01;3.05;;;2.10;;
15958;SDS011;8078;47.822;9.402;2023-05-09T13:28:26;2.25;;;2.05;;
15958;SDS011;8078;47.822;9.402;2023-05-09T13:30:52;2.00;;;1.80;;
15958;SDS011;8078;47.822;9.402;2023-05-09T13:33:18;2.67;;;2.10;;
15958;SDS011;8078;47.822;9.402;2023-05-09T13:35:43;2.67;;;2.08;;
15958;SDS011;8078;47.822;9.402;2023-05-09T13:38:09;2.13;;;2.00;;
15958;SDS011;8078;47.822;9.402;2023-05-09T13:40:34;3.58;;;2.00;;
15958;SDS011;8078;47.822;9.402;2023-05-09T13:43:01;2.40;;;2.10;;
15958;SDS011;8078;47.822;9.402;2023-05-09T13:45:27;2.22;;;2.00;;
15958;SDS011;8078;47.822;9.402;2023-05-09T13:47:53;2.20;;;2.00;;
15958;SDS011;8078;47.822;9.402;2023-05-09T13:50:18;2.05;;;1.90;;
15958;SDS011;8078;47.822;9.402;2023-05-09T13:52:44;1.90;;;1.80;;
15958;SDS011;8078;47.822;9.402;2023-05-09T13:55:09;1.70;;;1.60;;
15958;SDS011;8078;47.822;9.402;2023-05-09T13:57:35;1.70;;;1.60;;
15958;SDS011;8078;47.822;9.402;2023-05-09T14:00:01;1.70;;;1.60;;
15958;SDS011;8078;47.822;9.402;2023-05-09T14:02:28;1.50;;;1.40;;
15958;SDS011;8078;47.822;9.402;2023-05-09T14:04:53;3.33;;;1.60;;
15958;SDS011;8078;47.822;9.402;2023-05-09T14:07:19;1.75;;;1.65;;
15958;SDS011;8078;47.822;9.402;2023-05-09T14:09:45;1.60;;;1.50;;
15958;SDS011;8078;47.822;9.402;2023-05-09T14:12:11;1.63;;;1.52;;
15958;SDS011;8078;47.822;9.402;2023-05-09T14:14:37;1.65;;;1.55;;
15958;SDS011;8078;47.822;9.402;2023-05-09T14:17:02;3.97;;;1.60;;
15958;SDS011;8078;47.822;9.402;2023-05-09T14:19:28;2.25;;;1.73;;
15958;SDS011;8078;47.822;9.402;2023-05-09T14:21:56;5.30;;;1.48;;
15958;SDS011;8078;47.822;9.402;2023-05-09T14:24:22;1.45;;;1.35;;
15958;SDS011;8078;47.822;9.402;2023-05-09T14:26:47;1.48;;;1.35;;
15958;SDS011;8078;47.822;9.402;2023-05-09T14:29:15;1.40;;;1.30;;
15958;SDS011;8078;47.822;9.402;2023-05-09T14:31:40;2.25;;;1.30;;
15958;SDS011;8078;47.822;9.402;2023-05-09T14:34:06;2.63;;;1.27;;
15958;SDS011;8078;47.822;9.402;2023-05-09T14:36:33;1.40;;;1.30;;
15958;SDS011;8078;47.822;9.402;2023-05-09T14:38:58;2.38;;;1.55;;
15958;SDS011;8078;47.822;9.402;2023-05-09T14:41:24;2.08;;;1.20;;
15958;SDS011;8078;47.822;9.402;2023-05-09T14:43:50;1.13;;;1.02;;
15958;SDS011;8078;47.822;9.402;2023-05-09T14:46:16;1.50;;;1.30;;
15958;SDS011;8078;47.822;9.402;2023-05-09T14:48:42;1.42;;;1.10;;
15958;SDS011;8078;47.822;9.402;2023-05-09T14:51:07;2.28;;;1.13;;
15958;SDS011;8078;47.822;9.402;2023-05-09T14:53:33;1.58;;;1.23;;
15958;SDS011;8078;47.822;9.402;2023-05-09T14:56:04;1.50;;;1.08;;
15958;SDS011;8078;47.822;9.402;2023-05-09T14:58:30;1.05;;;0.98;;
15958;SDS011;8078;47.822;9.402;2023-05-09T15:00:58;1.80;;;1.40;;
15958;SDS011;8078;47.822;9.402;2023-05-09T15:03:24;1.70;;;1.60;;
15958;SDS011;8078;47.822;9.402;2023-05-09T15:05:49;1.27;;;1.17;;